sensor_id;sensor_type;location;lat;lon;timestamp;temperature;humidity
24664;DHT22;12791;50.992;13.788;2022-12-18T04:02:41;-6.60;99.90
24664;DHT22;12791;50.992;13.788;2022-12-18T04:05:10;-6.40;99.90
24664;DHT22;12791;50.992;13.788;2022-12-18T04:07:38;-6.70;99.90
24664;DHT22;12791;50.992;13.788;2022-12-18T04:10:07;-6.60;99.90
24664;DHT22;12791;50.992;13.788;2022-12-18T04:12:37;-6.80;99.90
24664;DHT22;12791;50.992;13.788;2022-12-18T04:15:05;-6.80;99.90
24664;DHT22;12791;50.992;13.788;2022-12-18T04:17:32;-6.90;99.90
24664;DHT22;12791;50.992;13.788;2022-12-18T04:20:00;-7.00;99.90
24664;DHT22;12791;50.992;13.788;2022-12-18T04:22:27;-7.10;99.90
24664;DHT22;12791;50.992;13.788;2022-12-18T04:24:54;-7.10;99.90
24664;DHT22;12791;50.992;13.788;2022-12-18T04:27:21;-7.10;99.90
24664;DHT22;12791;50.992;13.788;2022-12-18T04:29:48;-7.00;99.90
24664;DHT22;12791;50.992;13.788;2022-12-18T04:32:14;-7.20;99.90
24664;DHT22;12791;50.992;13.788;2022-12-18T04:34:41;-7.10;99.90
24664;DHT22;12791;50.992;13.788;2022-12-18T04:37:09;-7.10;99.90
24664;DHT22;12791;50.992;13.788;2022-12-18T04:39:36;-7.20;99.90
24664;DHT22;12791;50.992;13.788;2022-12-18T04:42:03;-7.10;99.90
24664;DHT22;12791;50.992;13.788;2022-12-18T04:44:30;-7.10;99.90
24664;DHT22;12791;50.992;13.788;2022-12-18T04:46:57;-7.10;99.90
24664;DHT22;12791;50.992;13.788;2022-12-18T04:49:23;-7.20;99.90
24664;DHT22;12791;50.992;13.788;2022-12-18T04:51:50;-6.90;99.90
24664;DHT22;12791;50.992;13.788;2022-12-18T04:54:19;-6.90;99.90
24664;DHT22;12791;50.992;13.788;2022-12-18T04:56:46;-6.80;99.90
24664;DHT22;12791;50.992;13.788;2022-12-18T04:59:13;-6.80;99.90
24664;DHT22;12791;50.992;13.788;2022-12-18T05:01:40;-6.80;99.90
24664;DHT22;12791;50.992;13.788;2022-12-18T05:04:07;-6.80;99.90
24664;DHT22;12791;50.992;13.788;2022-12-18T05:06:34;-6.60;99.90
24664;DHT22;12791;50.992;13.788;2022-12-18T05:09:00;-6.60;99.90
24664;DHT22;12791;50.992;13.788;2022-12-18T05:11:28;-6.70;99.90
24664;DHT22;12791;50.992;13.788;2022-12-18T05:13:55;-6.60;99.90
24664;DHT22;12791;50.992;13.788;2022-12-18T05:16:22;-6.60;99.90
24664;DHT22;12791;50.992;13.788;2022-12-18T05:18:48;-6.30;99.90
24664;DHT22;12791;50.992;13.788;2022-12-18T05:21:15;-6.60;99.90
24664;DHT22;12791;50.992;13.788;2022-12-18T05:23:42;-6.60;99.90
24664;DHT22;12791;50.992;13.788;2022-12-18T05:26:09;-6.70;99.90
24664;DHT22;12791;50.992;13.788;2022-12-18T05:28:41;-6.60;99.90
24664;DHT22;12791;50.992;13.788;2022-12-18T05:31:08;-6.60;99.90
24664;DHT22;12791;50.992;13.788;2022-12-18T05:33:35;-6.80;99.90
24664;DHT22;12791;50.992;13.788;2022-12-18T05:36:04;-6.90;99.90
24664;DHT22;12791;50.992;13.788;2022-12-18T05:38:32;-6.90;99.90
24664;DHT22;12791;50.992;13.788;2022-12-18T05:41:00;-6.90;99.90
24664;DHT22;12791;50.992;13.788;2022-12-18T05:43:27;-6.90;99.90
24664;DHT22;12791;50.992;13.788;2022-12-18T05:45:56;-7.00;99.90
24664;DHT22;12791;50.992;13.788;2022-12-18T05:48:23;-7.00;99.90
24664;DHT22;12791;50.992;13.788;2022-12-18T05:50:50;-7.20;99.90
24664;DHT22;12791;50.992;13.788;2022-12-18T05:53:19;-7.10;99.90
24664;DHT22;12791;50.992;13.788;2022-12-18T05:55:46;-7.10;99.90
24664;DHT22;12791;50.992;13.788;2022-12-18T05:58:14;-7.10;99.90
24664;DHT22;12791;50.992;13.788;2022-12-18T06:00:44;-7.10;99.90
24664;DHT22;12791;50.992;13.788;2022-12-18T06:03:13;-7.20;99.90
24664;DHT22;12791;50.992;13.788;2022-12-18T06:05:42;-7.10;99.90
24664;DHT22;12791;50.992;13.788;2022-12-18T06:08:09;-6.90;99.90
24664;DHT22;12791;50.992;13.788;2022-12-18T06:10:36;-6.80;99.90
24664;DHT22;12791;50.992;13.788;2022-12-18T06:13:03;-7.00;99.90
24664;DHT22;12791;50.992;13.788;2022-12-18T06:15:30;-7.00;99.90
24664;DHT22;12791;50.992;13.788;2022-12-18T06:17:57;-6.80;99.90
24664;DHT22;12791;50.992;13.788;2022-12-18T06:20:25;-6.70;99.90
24664;DHT22;12791;50.992;13.788;2022-12-18T06:22:52;-6.90;99.90
24664;DHT22;12791;50.992;13.788;2022-12-18T06:25:19;-7.10;99.90
24664;DHT22;12791;50.992;13.788;2022-12-18T06:27:47;-7.00;99.90
24664;DHT22;12791;50.992;13.788;2022-12-18T06:30:14;-7.20;99.90
24664;DHT22;12791;50.992;13.788;2022-12-18T06:32:41;-7.00;99.90
24664;DHT22;12791;50.992;13.788;2022-12-18T06:35:08;-6.90;99.90
24664;DHT22;12791;50.992;13.788;2022-12-18T06:37:36;-6.90;99.90
24664;DHT22;12791;50.992;13.788;2022-12-18T06:40:04;-6.90;99.90
24664;DHT22;12791;50.992;13.788;2022-12-18T06:42:31;-7.10;99.90
24664;DHT22;12791;50.992;13.788;2022-12-18T06:44:57;-7.00;99.90
24664;DHT22;12791;50.992;13.788;2022-12-18T06:47:24;-6.90;99.90
24664;DHT22;12791;50.992;13.788;2022-12-18T06:49:51;-7.10;99.90
24664;DHT22;12791;50.992;13.788;2022-12-18T06:52:18;-7.20;99.90
24664;DHT22;12791;50.992;13.788;2022-12-18T06:54:46;-7.20;99.90
24664;DHT22;12791;50.992;13.788;2022-12-18T06:57:13;-7.30;99.90
24664;DHT22;12791;50.992;13.788;2022-12-18T06:59:39;-7.30;99.90
24664;DHT22;12791;50.992;13.788;2022-12-18T07:02:06;-7.10;99.90
24664;DHT22;12791;50.992;13.788;2022-12-18T07:04:33;-7.20;99.90
24664;DHT22;12791;50.992;13.788;2022-12-18T07:07:00;-7.00;99.90
24664;DHT22;12791;50.992;13.788;2022-12-18T07:09:26;-7.00;99.90
24664;DHT22;12791;50.992;13.788;2022-12-18T07:11:54;-7.10;99.90
24664;DHT22;12791;50.992;13.788;2022-12-18T07:14:21;-7.00;99.90
24664;DHT22;12791;50.992;13.788;2022-12-18T07:16:48;-6.80;99.90
24664;DHT22;12791;50.992;13.788;2022-12-18T07:19:15;-6.90;99.90
24664;DHT22;12791;50.992;13.788;2022-12-18T07:21:41;-7.00;99.90
24664;DHT22;12791;50.992;13.788;2022-12-18T07:24:08;-7.10;99.90
24664;DHT22;12791;50.992;13.788;2022-12-18T07:26:35;-7.20;99.90
24664;DHT22;12791;50.992;13.788;2022-12-18T07:29:03;-6.90;99.90
24664;DHT22;12791;50.992;13.788;2022-12-18T07:31:30;-7.00;99.90
24664;DHT22;12791;50.992;13.788;2022-12-18T07:33:56;-7.20;99.90
24664;DHT22;12791;50.992;13.788;2022-12-18T07:36:24;-7.10;99.90
24664;DHT22;12791;50.992;13.788;2022-12-18T07:38:51;-7.10;99.90
24664;DHT22;12791;50.992;13.788;2022-12-18T07:41:18;-7.00;99.90
24664;DHT22;12791;50.992;13.788;2022-12-18T07:43:46;-7.00;99.90
24664;DHT22;12791;50.992;13.788;2022-12-18T07:46:14;-6.50;99.90
24664;DHT22;12791;50.992;13.788;2022-12-18T07:48:41;-6.60;99.90
24664;DHT22;12791;50.992;13.788;2022-12-18T07:51:09;-6.30;99.90
24664;DHT22;12791;50.992;13.788;2022-12-18T07:53:36;-6.50;99.90
24664;DHT22;12791;50.992;13.788;2022-12-18T07:56:05;-6.50;99.90
24664;DHT22;12791;50.992;13.788;2022-12-18T07:58:32;-6.60;99.90
24664;DHT22;12791;50.992;13.788;2022-12-18T08:01:03;-6.50;99.90
24664;DHT22;12791;50.992;13.788;2022-12-18T08:03:32;-6.30;99.90
24664;DHT22;12791;50.992;13.788;2022-12-18T08:05:59;-6.20;99.90
24664;DHT22;12791;50.992;13.788;2022-12-18T08:08:26;-6.10;99.90
24664;DHT22;12791;50.992;13.788;2022-12-18T08:10:53;-6.10;99.90
24664;DHT22;12791;50.992;13.788;2022-12-18T08:13:20;-5.80;99.90
24664;DHT22;12791;50.992;13.788;2022-12-18T08:15:54;-5.80;99.90
24664;DHT22;12791;50.992;13.788;2022-12-18T08:18:21;-5.80;99.90
24664;DHT22;12791;50.992;13.788;2022-12-18T08:20:49;-5.70;99.90
24664;DHT22;12791;50.992;13.788;2022-12-18T08:23:16;-5.30;99.90
24664;DHT22;12791;50.992;13.788;2022-12-18T08:25:43;-5.30;99.90
24664;DHT22;12791;50.992;13.788;2022-12-18T08:28:10;-5.40;99.90
24664;DHT22;12791;50.992;13.788;2022-12-18T08:30:37;-5.70;99.90
24664;DHT22;12791;50.992;13.788;2022-12-18T08:33:04;-5.10;99.90
24664;DHT22;12791;50.992;13.788;2022-12-18T08:35:34;-5.10;99.90
24664;DHT22;12791;50.992;13.788;2022-12-18T08:38:03;-5.20;99.90
24664;DHT22;12791;50.992;13.788;2022-12-18T08:40:30;-5.00;99.90
24664;DHT22;12791;50.992;13.788;2022-12-18T08:42:57;-4.90;99.90
24664;DHT22;12791;50.992;13.788;2022-12-18T08:45:41;-5.10;99.90
24664;DHT22;12791;50.992;13.788;2022-12-18T08:48:08;-5.10;99.90
24664;DHT22;12791;50.992;13.788;2022-12-18T08:50:34;-5.20;99.90
24664;DHT22;12791;50.992;13.788;2022-12-18T08:53:04;-4.80;99.90
24664;DHT22;12791;50.992;13.788;2022-12-18T08:55:31;-5.00;99.90
24664;DHT22;12791;50.992;13.788;2022-12-18T08:57:57;-4.80;99.90
24664;DHT22;12791;50.992;13.788;2022-12-18T09:00:24;-4.70;99.90
24664;DHT22;12791;50.992;13.788;2022-12-18T09:02:51;-4.80;99.90
24664;DHT22;12791;50.992;13.788;2022-12-18T09:05:18;-4.60;99.90
24664;DHT22;12791;50.992;13.788;2022-12-18T09:07:44;-4.70;99.90
24664;DHT22;12791;50.992;13.788;2022-12-18T09:10:12;-4.60;99.90
24664;DHT22;12791;50.992;13.788;2022-12-18T09:12:39;-4.80;99.90
24664;DHT22;12791;50.992;13.788;2022-12-18T09:15:06;-4.50;99.90
24664;DHT22;12791;50.992;13.788;2022-12-18T09:17:33;-4.60;99.90
24664;DHT22;12791;50.992;13.788;2022-12-18T09:20:00;-4.50;99.90
24664;DHT22;12791;50.992;13.788;2022-12-18T09:22:27;-4.50;99.90
24664;DHT22;12791;50.992;13.788;2022-12-18T09:24:53;-4.30;99.90
24664;DHT22;12791;50.992;13.788;2022-12-18T09:27:22;-4.20;99.90
24664;DHT22;12791;50.992;13.788;2022-12-18T09:29:48;-4.20;99.90
24664;DHT22;12791;50.992;13.788;2022-12-18T09:32:15;-4.20;99.90
24664;DHT22;12791;50.992;13.788;2022-12-18T09:34:42;-4.10;99.90
24664;DHT22;12791;50.992;13.788;2022-12-18T09:37:09;-3.90;99.90
24664;DHT22;12791;50.992;13.788;2022-12-18T09:39:35;-3.90;99.90
24664;DHT22;12791;50.992;13.788;2022-12-18T09:42:03;-3.80;99.90
24664;DHT22;12791;50.992;13.788;2022-12-18T09:44:34;-3.90;99.90
24664;DHT22;12791;50.992;13.788;2022-12-18T09:47:03;-3.60;99.90
24664;DHT22;12791;50.992;13.788;2022-12-18T09:49:35;-3.60;99.90
24664;DHT22;12791;50.992;13.788;2022-12-18T09:52:08;-3.40;99.90
24664;DHT22;12791;50.992;13.788;2022-12-18T09:54:38;-3.30;99.90
24664;DHT22;12791;50.992;13.788;2022-12-18T09:57:13;-2.90;99.90
24664;DHT22;12791;50.992;13.788;2022-12-18T09:59:45;-2.70;99.90
24664;DHT22;12791;50.992;13.788;2022-12-18T10:02:17;-3.00;99.90
24664;DHT22;12791;50.992;13.788;2022-12-18T10:04:50;-2.80;99.90
24664;DHT22;12791;50.992;13.788;2022-12-18T10:07:25;-2.70;99.90
24664;DHT22;12791;50.992;13.788;2022-12-18T10:10:01;-2.90;99.90
24664;DHT22;12791;50.992;13.788;2022-12-18T10:12:34;-2.90;99.90
24664;DHT22;12791;50.992;13.788;2022-12-18T10:15:13;-2.80;99.90
24664;DHT22;12791;50.992;13.788;2022-12-18T10:17:47;-2.60;99.90
24664;DHT22;12791;50.992;13.788;2022-12-18T10:20:19;-2.70;99.90
24664;DHT22;12791;50.992;13.788;2022-12-18T10:22:53;-2.70;99.90
24664;DHT22;12791;50.992;13.788;2022-12-18T10:25:25;-2.60;99.90
24664;DHT22;12791;50.992;13.788;2022-12-18T10:27:57;-2.60;99.90
24664;DHT22;12791;50.992;13.788;2022-12-18T10:30:26;-2.50;99.90
24664;DHT22;12791;50.992;13.788;2022-12-18T10:32:53;-2.70;99.90
24664;DHT22;12791;50.992;13.788;2022-12-18T10:35:23;-2.50;99.90
24664;DHT22;12791;50.992;13.788;2022-12-18T10:38:06;-2.60;99.90
24664;DHT22;12791;50.992;13.788;2022-12-18T10:40:48;-2.30;99.90
24664;DHT22;12791;50.992;13.788;2022-12-18T10:43:20;-2.50;99.90
24664;DHT22;12791;50.992;13.788;2022-12-18T10:46:01;-2.40;99.90
24664;DHT22;12791;50.992;13.788;2022-12-18T10:48:29;-2.30;99.90
24664;DHT22;12791;50.992;13.788;2022-12-18T10:50:57;-2.30;99.90
24664;DHT22;12791;50.992;13.788;2022-12-18T10:53:26;-2.30;99.90
24664;DHT22;12791;50.992;13.788;2022-12-18T10:55:54;-2.40;99.90
24664;DHT22;12791;50.992;13.788;2022-12-18T10:58:24;-2.30;99.90
24664;DHT22;12791;50.992;13.788;2022-12-18T11:01:05;-2.20;99.90
24664;DHT22;12791;50.992;13.788;2022-12-18T11:03:34;-2.30;99.90
24664;DHT22;12791;50.992;13.788;2022-12-18T11:06:04;-2.30;99.90
24664;DHT22;12791;50.992;13.788;2022-12-18T11:08:31;-2.40;99.90
24664;DHT22;12791;50.992;13.788;2022-12-18T11:10:58;-2.30;99.90
24664;DHT22;12791;50.992;13.788;2022-12-18T11:13:26;-2.10;99.90
24664;DHT22;12791;50.992;13.788;2022-12-18T11:15:54;-2.30;99.90
24664;DHT22;12791;50.992;13.788;2022-12-18T11:18:27;-2.30;99.90
24664;DHT22;12791;50.992;13.788;2022-12-18T11:20:54;-2.30;99.90
24664;DHT22;12791;50.992;13.788;2022-12-18T11:23:23;-1.90;99.90
24664;DHT22;12791;50.992;13.788;2022-12-18T11:25:56;-2.20;99.90
24664;DHT22;12791;50.992;13.788;2022-12-18T11:28:29;-2.30;99.90
24664;DHT22;12791;50.992;13.788;2022-12-18T11:31:18;-2.10;99.90
24664;DHT22;12791;50.992;13.788;2022-12-18T11:33:58;-2.10;99.90
24664;DHT22;12791;50.992;13.788;2022-12-18T11:36:29;-2.10;99.90
24664;DHT22;12791;50.992;13.788;2022-12-18T11:39:00;-2.10;99.90
24664;DHT22;12791;50.992;13.788;2022-12-18T11:41:32;-1.90;99.90
24664;DHT22;12791;50.992;13.788;2022-12-18T11:44:24;-2.10;99.90
24664;DHT22;12791;50.992;13.788;2022-12-18T11:46:56;-1.90;99.90
24664;DHT22;12791;50.992;13.788;2022-12-18T11:49:30;-1.90;99.90
24664;DHT22;12791;50.992;13.788;2022-12-18T11:52:03;-2.00;99.90
24664;DHT22;12791;50.992;13.788;2022-12-18T11:54:31;-1.90;99.90
24664;DHT22;12791;50.992;13.788;2022-12-18T11:57:03;-1.90;99.90
24664;DHT22;12791;50.992;13.788;2022-12-18T11:59:36;-1.70;99.90
24664;DHT22;12791;50.992;13.788;2022-12-18T12:02:19;-2.00;99.90
24664;DHT22;12791;50.992;13.788;2022-12-18T12:05:00;-1.90;99.90
24664;DHT22;12791;50.992;13.788;2022-12-18T12:07:38;-1.90;99.90
24664;DHT22;12791;50.992;13.788;2022-12-18T12:10:22;-1.80;99.90
24664;DHT22;12791;50.992;13.788;2022-12-18T12:13:01;-1.90;99.90
24664;DHT22;12791;50.992;13.788;2022-12-18T12:15:34;-1.80;99.90
24664;DHT22;12791;50.992;13.788;2022-12-18T12:18:17;-1.90;99.90
24664;DHT22;12791;50.992;13.788;2022-12-18T12:20:56;-1.70;99.90
24664;DHT22;12791;50.992;13.788;2022-12-18T12:23:34;-1.80;99.90
24664;DHT22;12791;50.992;13.788;2022-12-18T12:26:08;-1.90;99.90
24664;DHT22;12791;50.992;13.788;2022-12-18T12:28:51;-2.00;99.90
24664;DHT22;12791;50.992;13.788;2022-12-18T12:31:27;-2.00;99.90
24664;DHT22;12791;50.992;13.788;2022-12-18T12:34:04;-2.30;99.90
24664;DHT22;12791;50.992;13.788;2022-12-18T12:36:46;-1.70;99.90
24664;DHT22;12791;50.992;13.788;2022-12-18T12:39:23;-2.10;99.90
24664;DHT22;12791;50.992;13.788;2022-12-18T12:41:54;-1.80;99.90
24664;DHT22;12791;50.992;13.788;2022-12-18T12:44:42;-2.00;99.90
24664;DHT22;12791;50.992;13.788;2022-12-18T12:47:14;-1.90;99.90
24664;DHT22;12791;50.992;13.788;2022-12-18T12:49:42;-2.00;99.90
24664;DHT22;12791;50.992;13.788;2022-12-18T12:52:23;-2.00;99.90
24664;DHT22;12791;50.992;13.788;2022-12-18T12:54:52;-1.70;99.90
24664;DHT22;12791;50.992;13.788;2022-12-18T12:57:21;-1.80;99.90
24664;DHT22;12791;50.992;13.788;2022-12-18T12:59:52;-1.90;99.90
24664;DHT22;12791;50.992;13.788;2022-12-18T13:02:29;-2.00;99.90
24664;DHT22;12791;50.992;13.788;2022-12-18T13:05:01;-1.90;99.90
24664;DHT22;12791;50.992;13.788;2022-12-18T13:07:35;-1.90;99.90
24664;DHT22;12791;50.992;13.788;2022-12-18T13:10:25;-1.80;99.90
24664;DHT22;12791;50.992;13.788;2022-12-18T13:12:54;-2.00;99.90
24664;DHT22;12791;50.992;13.788;2022-12-18T13:15:27;-1.80;99.90
24664;DHT22;12791;50.992;13.788;2022-12-18T13:18:19;-2.00;99.90
24664;DHT22;12791;50.992;13.788;2022-12-18T13:20:47;-1.90;99.90
24664;DHT22;12791;50.992;13.788;2022-12-18T13:23:31;-2.40;99.90
24664;DHT22;12791;50.992;13.788;2022-12-18T13:26:00;-2.00;99.90
24664;DHT22;12791;50.992;13.788;2022-12-18T13:28:52;-2.10;99.90
24664;DHT22;12791;50.992;13.788;2022-12-18T13:34:29;-2.20;99.90
24664;DHT22;12791;50.992;13.788;2022-12-18T13:37:33;-2.00;99.90
24664;DHT22;12791;50.992;13.788;2022-12-18T13:39:46;-2.10;99.90
24664;DHT22;12791;50.992;13.788;2022-12-18T13:42:37;-2.10;99.90
24664;DHT22;12791;50.992;13.788;2022-12-18T13:45:43;-2.30;99.90
24664;DHT22;12791;50.992;13.788;2022-12-18T13:48:16;-2.20;99.90
24664;DHT22;12791;50.992;13.788;2022-12-18T13:50:49;-2.60;99.90
24664;DHT22;12791;50.992;13.788;2022-12-18T13:53:20;-2.50;99.90
24664;DHT22;12791;50.992;13.788;2022-12-18T13:55:49;-2.60;99.90
24664;DHT22;12791;50.992;13.788;2022-12-18T13:58:16;-2.40;99.90
24664;DHT22;12791;50.992;13.788;2022-12-18T14:00:43;-2.40;99.90
24664;DHT22;12791;50.992;13.788;2022-12-18T14:03:18;-2.40;99.90
24664;DHT22;12791;50.992;13.788;2022-12-18T14:05:46;-2.60;99.90
24664;DHT22;12791;50.992;13.788;2022-12-18T14:08:18;-2.30;99.90
24664;DHT22;12791;50.992;13.788;2022-12-18T14:10:47;-2.60;99.90
24664;DHT22;12791;50.992;13.788;2022-12-18T14:13:21;-2.60;99.90
24664;DHT22;12791;50.992;13.788;2022-12-18T14:15:49;-2.60;99.90
24664;DHT22;12791;50.992;13.788;2022-12-18T14:18:21;-2.60;99.90
24664;DHT22;12791;50.992;13.788;2022-12-18T14:20:50;-2.50;99.90
24664;DHT22;12791;50.992;13.788;2022-12-18T14:23:29;-2.60;99.90
24664;DHT22;12791;50.992;13.788;2022-12-18T14:25:57;-2.80;99.90
24664;DHT22;12791;50.992;13.788;2022-12-18T14:28:25;-2.70;99.90
24664;DHT22;12791;50.992;13.788;2022-12-18T14:30:52;-2.90;99.90
24664;DHT22;12791;50.992;13.788;2022-12-18T14:33:21;-2.80;99.90
24664;DHT22;12791;50.992;13.788;2022-12-18T14:35:59;-2.90;99.90
24664;DHT22;12791;50.992;13.788;2022-12-18T14:38:30;-2.80;99.90
24664;DHT22;12791;50.992;13.788;2022-12-18T14:40:58;-2.90;99.90
24664;DHT22;12791;50.992;13.788;2022-12-18T14:43:28;-3.00;99.90
24664;DHT22;12791;50.992;13.788;2022-12-18T14:45:56;-3.10;99.90
24664;DHT22;12791;50.992;13.788;2022-12-18T14:48:35;-3.30;99.90
24664;DHT22;12791;50.992;13.788;2022-12-18T14:51:03;-3.40;99.90
24664;DHT22;12791;50.992;13.788;2022-12-18T14:53:42;-3.40;99.90
24664;DHT22;12791;50.992;13.788;2022-12-18T14:56:15;-3.50;99.90
24664;DHT22;12791;50.992;13.788;2022-12-18T14:58:49;-3.20;99.90
24664;DHT22;12791;50.992;13.788;2022-12-18T15:01:23;-3.50;99.90
24664;DHT22;12791;50.992;13.788;2022-12-18T15:03:51;-3.50;99.90
24664;DHT22;12791;50.992;13.788;2022-12-18T15:06:26;-3.50;99.90
24664;DHT22;12791;50.992;13.788;2022-12-18T15:08:53;-3.50;99.90
24664;DHT22;12791;50.992;13.788;2022-12-18T15:11:35;-3.40;99.90
24664;DHT22;12791;50.992;13.788;2022-12-18T15:17:15;-3.60;99.90
24664;DHT22;12791;50.992;13.788;2022-12-18T15:19:44;-3.40;99.90
24664;DHT22;12791;50.992;13.788;2022-12-18T15:22:23;-3.40;99.90
24664;DHT22;12791;50.992;13.788;2022-12-18T15:24:51;-3.30;99.90
24664;DHT22;12791;50.992;13.788;2022-12-18T15:27:27;-3.50;99.90
24664;DHT22;12791;50.992;13.788;2022-12-18T15:30:20;-3.60;99.90
24664;DHT22;12791;50.992;13.788;2022-12-18T15:32:49;-3.30;99.90
24664;DHT22;12791;50.992;13.788;2022-12-18T15:35:19;-3.60;99.90
24664;DHT22;12791;50.992;13.788;2022-12-18T15:37:47;-3.60;99.90
24664;DHT22;12791;50.992;13.788;2022-12-18T15:40:15;-3.40;99.90
24664;DHT22;12791;50.992;13.788;2022-12-18T15:42:43;-3.30;99.90
24664;DHT22;12791;50.992;13.788;2022-12-18T15:45:28;-3.40;99.90
24664;DHT22;12791;50.992;13.788;2022-12-18T15:47:56;-3.50;99.90
24664;DHT22;12791;50.992;13.788;2022-12-18T15:50:23;-3.40;99.90
24664;DHT22;12791;50.992;13.788;2022-12-18T15:52:52;-3.60;99.90
24664;DHT22;12791;50.992;13.788;2022-12-18T15:55:21;-3.60;99.90
24664;DHT22;12791;50.992;13.788;2022-12-18T15:58:06;-3.60;99.90
24664;DHT22;12791;50.992;13.788;2022-12-18T16:00:34;-3.40;99.90
24664;DHT22;12791;50.992;13.788;2022-12-18T16:03:03;-3.60;99.90
24664;DHT22;12791;50.992;13.788;2022-12-18T16:05:31;-3.40;99.90
24664;DHT22;12791;50.992;13.788;2022-12-18T16:07:58;-3.60;99.90
24664;DHT22;12791;50.992;13.788;2022-12-18T16:10:25;-3.50;99.90
24664;DHT22;12791;50.992;13.788;2022-12-18T16:12:52;-3.40;99.90
24664;DHT22;12791;50.992;13.788;2022-12-18T16:15:19;-3.40;99.90
24664;DHT22;12791;50.992;13.788;2022-12-18T16:17:47;-3.60;99.90
24664;DHT22;12791;50.992;13.788;2022-12-18T16:20:17;-3.60;99.90
24664;DHT22;12791;50.992;13.788;2022-12-18T16:22:45;-3.70;99.90
24664;DHT22;12791;50.992;13.788;2022-12-18T16:25:18;-3.70;99.90
24664;DHT22;12791;50.992;13.788;2022-12-18T16:27:45;-3.60;99.90
24664;DHT22;12791;50.992;13.788;2022-12-18T16:30:13;-3.70;99.90
24664;DHT22;12791;50.992;13.788;2022-12-18T16:32:40;-3.50;99.90
24664;DHT22;12791;50.992;13.788;2022-12-18T16:35:10;-3.70;99.90
24664;DHT22;12791;50.992;13.788;2022-12-18T16:37:39;-3.80;99.90
24664;DHT22;12791;50.992;13.788;2022-12-18T16:40:08;-3.70;99.90
24664;DHT22;12791;50.992;13.788;2022-12-18T16:42:35;-3.50;99.90
24664;DHT22;12791;50.992;13.788;2022-12-18T16:45:03;-3.70;99.90
24664;DHT22;12791;50.992;13.788;2022-12-18T16:47:31;-3.40;99.90
24664;DHT22;12791;50.992;13.788;2022-12-18T16:49:58;-3.50;99.90
24664;DHT22;12791;50.992;13.788;2022-12-18T16:52:25;-3.50;99.90
24664;DHT22;12791;50.992;13.788;2022-12-18T16:54:53;-3.60;99.90
24664;DHT22;12791;50.992;13.788;2022-12-18T16:57:21;-3.40;99.90
24664;DHT22;12791;50.992;13.788;2022-12-18T16:59:48;-3.60;99.90
24664;DHT22;12791;50.992;13.788;2022-12-18T17:02:17;-3.50;99.90
24664;DHT22;12791;50.992;13.788;2022-12-18T17:04:44;-3.70;99.90
24664;DHT22;12791;50.992;13.788;2022-12-18T17:07:12;-3.60;99.90
24664;DHT22;12791;50.992;13.788;2022-12-18T17:09:39;-3.40;99.90
24664;DHT22;12791;50.992;13.788;2022-12-18T17:12:07;-3.50;99.90
24664;DHT22;12791;50.992;13.788;2022-12-18T17:14:35;-3.40;99.90
24664;DHT22;12791;50.992;13.788;2022-12-18T17:17:02;-3.40;99.90
24664;DHT22;12791;50.992;13.788;2022-12-18T17:19:29;-3.60;99.90
24664;DHT22;12791;50.992;13.788;2022-12-18T17:21:56;-3.80;99.90
24664;DHT22;12791;50.992;13.788;2022-12-18T17:24:23;-3.80;99.90
24664;DHT22;12791;50.992;13.788;2022-12-18T17:26:49;-3.80;99.90
24664;DHT22;12791;50.992;13.788;2022-12-18T17:29:19;-3.80;99.90
24664;DHT22;12791;50.992;13.788;2022-12-18T17:31:47;-3.60;99.90
24664;DHT22;12791;50.992;13.788;2022-12-18T17:34:14;-4.40;99.90
24664;DHT22;12791;50.992;13.788;2022-12-18T17:36:41;-3.80;99.90
24664;DHT22;12791;50.992;13.788;2022-12-18T17:39:16;-3.50;99.90
24664;DHT22;12791;50.992;13.788;2022-12-18T17:41:43;-3.50;99.90
24664;DHT22;12791;50.992;13.788;2022-12-18T17:44:10;-3.50;99.90
24664;DHT22;12791;50.992;13.788;2022-12-18T17:46:39;-3.80;99.90
24664;DHT22;12791;50.992;13.788;2022-12-18T17:49:06;-3.60;99.90
24664;DHT22;12791;50.992;13.788;2022-12-18T17:51:32;-3.60;99.90
24664;DHT22;12791;50.992;13.788;2022-12-18T17:53:59;-3.60;99.90
24664;DHT22;12791;50.992;13.788;2022-12-18T17:56:26;-3.70;99.90
24664;DHT22;12791;50.992;13.788;2022-12-18T17:58:53;-3.50;99.90
24664;DHT22;12791;50.992;13.788;2022-12-18T18:01:22;-3.60;99.90
24664;DHT22;12791;50.992;13.788;2022-12-18T18:03:52;-3.40;99.90
24664;DHT22;12791;50.992;13.788;2022-12-18T18:06:20;-3.60;99.90
24664;DHT22;12791;50.992;13.788;2022-12-18T18:08:47;-3.50;99.90
24664;DHT22;12791;50.992;13.788;2022-12-18T18:11:16;-3.60;99.90
24664;DHT22;12791;50.992;13.788;2022-12-18T18:14:05;-3.60;99.90
24664;DHT22;12791;50.992;13.788;2022-12-18T18:16:34;-3.50;99.90
24664;DHT22;12791;50.992;13.788;2022-12-18T18:19:05;-3.60;99.90
24664;DHT22;12791;50.992;13.788;2022-12-18T18:21:33;-3.50;99.90
24664;DHT22;12791;50.992;13.788;2022-12-18T18:24:01;-3.50;99.90
24664;DHT22;12791;50.992;13.788;2022-12-18T18:26:29;-3.20;99.90
24664;DHT22;12791;50.992;13.788;2022-12-18T18:28:57;-3.20;99.90
24664;DHT22;12791;50.992;13.788;2022-12-18T18:31:25;-3.30;99.90
24664;DHT22;12791;50.992;13.788;2022-12-18T18:33:53;-3.40;99.90
24664;DHT22;12791;50.992;13.788;2022-12-18T18:36:22;-3.10;99.90
24664;DHT22;12791;50.992;13.788;2022-12-18T18:38:49;-3.30;99.90
24664;DHT22;12791;50.992;13.788;2022-12-18T18:41:16;-3.20;99.90
24664;DHT22;12791;50.992;13.788;2022-12-18T18:43:43;-3.20;99.90
24664;DHT22;12791;50.992;13.788;2022-12-18T18:46:12;-3.20;99.90
24664;DHT22;12791;50.992;13.788;2022-12-18T18:48:39;-3.20;99.90
24664;DHT22;12791;50.992;13.788;2022-12-18T18:51:08;-3.40;99.90
24664;DHT22;12791;50.992;13.788;2022-12-18T18:53:39;-3.30;99.90
24664;DHT22;12791;50.992;13.788;2022-12-18T18:56:07;-3.20;99.90
24664;DHT22;12791;50.992;13.788;2022-12-18T18:58:34;-3.20;99.90
24664;DHT22;12791;50.992;13.788;2022-12-18T19:01:04;-3.40;99.90
24664;DHT22;12791;50.992;13.788;2022-12-18T19:03:31;-3.30;99.90
24664;DHT22;12791;50.992;13.788;2022-12-18T19:05:59;-3.20;99.90
24664;DHT22;12791;50.992;13.788;2022-12-18T19:08:28;-3.40;99.90
24664;DHT22;12791;50.992;13.788;2022-12-18T19:10:58;-3.30;99.90
24664;DHT22;12791;50.992;13.788;2022-12-18T19:13:27;-3.20;99.90
24664;DHT22;12791;50.992;13.788;2022-12-18T19:15:55;-3.40;99.90
24664;DHT22;12791;50.992;13.788;2022-12-18T19:18:22;-3.30;99.90
24664;DHT22;12791;50.992;13.788;2022-12-18T19:20:56;-3.30;99.90
24664;DHT22;12791;50.992;13.788;2022-12-18T19:23:23;-3.40;99.90
24664;DHT22;12791;50.992;13.788;2022-12-18T19:25:50;-3.20;99.90
24664;DHT22;12791;50.992;13.788;2022-12-18T19:28:20;-3.10;99.90
24664;DHT22;12791;50.992;13.788;2022-12-18T19:30:51;-3.10;99.90
24664;DHT22;12791;50.992;13.788;2022-12-18T19:33:18;-3.30;99.90
24664;DHT22;12791;50.992;13.788;2022-12-18T19:35:45;-3.30;99.90
24664;DHT22;12791;50.992;13.788;2022-12-18T19:38:12;-3.20;99.90
24664;DHT22;12791;50.992;13.788;2022-12-18T19:40:39;-3.00;99.90